createdAt,value
2022-07-29T00:03:19.948Z,100441.98
2022-07-29T00:08:27.232Z,100444.70
2022-07-29T00:13:34.280Z,100450.83
2022-07-29T00:18:41.977Z,100448.46
2022-07-29T00:23:49.118Z,100449.05
2022-07-29T00:29:17.175Z,100454.49
2022-07-29T00:34:40.329Z,100456.80
2022-07-29T00:39:47.455Z,100444.90
2022-07-29T00:44:54.927Z,100441.39
2022-07-29T00:50:01.984Z,100437.35
2022-07-29T00:55:11.645Z,100438.14
2022-07-29T01:00:22.728Z,100432.86
2022-07-29T01:05:50.070Z,100434.73
2022-07-29T01:10:56.991Z,100438.09
2022-07-29T01:16:12.976Z,100445.04
2022-07-29T01:21:50.313Z,100439.31
2022-07-29T01:27:04.259Z,100439.27
2022-07-29T01:32:18.084Z,100433.02
2022-07-29T01:37:47.490Z,100424.30
2022-07-29T01:42:58.140Z,100423.48
2022-07-29T01:48:09.169Z,100421.41
2022-07-29T01:53:15.351Z,100415.41
2022-07-29T01:58:24.712Z,100417.85
2022-07-29T02:03:34.760Z,100416.69
2022-07-29T02:08:43.111Z,100405.55
2022-07-29T02:13:51.933Z,100402.92
2022-07-29T02:19:00.894Z,100404.40
2022-07-29T02:24:10.767Z,100403.95
2022-07-29T02:29:19.605Z,100400.56
2022-07-29T02:34:27.657Z,100398.89
2022-07-29T02:39:36.637Z,100402.23
2022-07-29T02:44:44.128Z,100399.20
2022-07-29T02:49:59.010Z,100401.77
2022-07-29T02:55:19.943Z,100404.66
2022-07-29T03:00:31.233Z,100402.89
2022-07-29T03:05:39.442Z,100403.86
2022-07-29T03:10:48.464Z,100412.77
2022-07-29T03:15:56.102Z,100410.96
2022-07-29T03:21:03.383Z,100412.41
2022-07-29T03:26:10.385Z,100411.73
2022-07-29T03:31:17.456Z,100415.34
2022-07-29T03:36:25.921Z,100417.33
2022-07-29T03:41:33.949Z,100418.11
2022-07-29T03:46:44.804Z,100416.84
2022-07-29T03:51:52.372Z,100421.02
2022-07-29T03:57:04.082Z,100426.80
2022-07-29T04:02:14.875Z,100430.48
2022-07-29T04:07:23.757Z,100434.22
2022-07-29T04:12:30.932Z,100433.34
2022-07-29T04:17:38.004Z,100432.14
2022-07-29T04:22:45.076Z,100432.81
2022-07-29T04:28:04.380Z,100428.05
2022-07-29T04:33:11.708Z,100427.68
2022-07-29T04:38:18.696Z,100425.38
2022-07-29T04:43:25.670Z,100418.00
2022-07-29T04:48:33.959Z,100416.21
2022-07-29T04:53:41.042Z,100416.17
2022-07-29T04:58:48.592Z,100418.11
2022-07-29T05:03:59.970Z,100414.11
2022-07-29T05:09:07.810Z,100414.31
2022-07-29T05:14:15.434Z,100411.66
2022-07-29T05:19:22.775Z,100408.40
2022-07-29T05:24:29.760Z,100401.47
2022-07-29T05:29:42.922Z,100407.93
2022-07-29T05:34:52.510Z,100414.23
2022-07-29T05:39:59.619Z,100413.06
2022-07-29T05:45:08.260Z,100410.73
2022-07-29T05:50:15.426Z,100407.59
2022-07-29T05:55:22.499Z,100404.61
2022-07-29T06:00:29.510Z,100405.04
2022-07-29T06:05:36.591Z,100399.20
2022-07-29T06:10:46.520Z,100406.16
2022-07-29T06:15:53.885Z,100409.41
2022-07-29T06:21:00.932Z,100406.27
2022-07-29T06:26:08.782Z,100402.90
2022-07-29T06:31:15.799Z,100399.90
2022-07-29T06:36:25.008Z,100400.15
2022-07-29T06:41:31.427Z,100401.88
2022-07-29T06:46:38.621Z,100404.33
2022-07-29T06:51:45.711Z,100411.79
2022-07-29T06:56:52.677Z,100415.20
2022-07-29T07:01:59.567Z,100413.45
2022-07-29T07:07:06.832Z,100408.06
2022-07-29T07:12:13.816Z,100416.27
2022-07-29T07:17:20.677Z,100412.87
2022-07-29T07:22:27.948Z,100403.54
2022-07-29T07:27:35.085Z,100397.30
2022-07-29T07:32:42.605Z,100397.52
2022-07-29T07:37:49.696Z,100390.05
2022-07-29T07:42:56.724Z,100392.39
2022-07-29T07:48:03.928Z,100395.85
2022-07-29T07:53:11.067Z,100393.70
2022-07-29T07:58:17.925Z,100390.09
2022-07-29T08:03:25.041Z,100388.58
2022-07-29T08:08:31.926Z,100386.81
2022-07-29T08:13:40.228Z,100385.23
2022-07-29T08:18:48.637Z,100382.57
2022-07-29T08:24:15.506Z,100381.56
2022-07-29T08:29:22.677Z,100381.65
2022-07-29T08:34:30.293Z,100382.65
2022-07-29T08:39:37.422Z,100390.20
2022-07-29T08:44:44.493Z,100386.63
2022-07-29T08:49:51.497Z,100387.52
2022-07-29T08:54:58.850Z,100383.44
2022-07-29T09:00:11.836Z,100379.94
2022-07-29T09:05:19.824Z,100378.57
2022-07-29T09:10:27.157Z,100381.73
2022-07-29T09:15:34.437Z,100375.13
2022-07-29T09:20:59.064Z,100372.14
2022-07-29T09:26:12.800Z,100370.04
2022-07-29T09:31:28.792Z,100373.77
2022-07-29T09:36:43.399Z,100368.13
2022-07-29T09:41:53.965Z,100361.27
2022-07-29T09:47:07.046Z,100357.21
2022-07-29T09:52:14.496Z,100352.11
2022-07-29T09:57:31.179Z,100350.05
2022-07-29T10:02:40.325Z,100346.23
2022-07-29T10:07:53.930Z,100337.55
2022-07-29T10:13:08.783Z,100337.09
2022-07-29T10:18:21.059Z,100339.05
2022-07-29T10:23:28.427Z,100331.60
2022-07-29T10:28:37.481Z,100333.90
2022-07-29T10:33:57.399Z,100331.98
2022-07-29T10:39:16.991Z,100328.37
2022-07-29T10:44:31.076Z,100328.76
2022-07-29T10:55:08.003Z,100325.94
2022-07-29T11:00:39.299Z,100319.95
2022-07-29T11:06:08.822Z,100315.25
2022-07-29T11:11:44.010Z,100316.86
2022-07-29T11:17:07.238Z,100318.84
2022-07-29T11:22:33.315Z,100309.71
2022-07-29T11:27:40.706Z,100304.63
2022-07-29T11:32:50.086Z,100302.35
2022-07-29T11:38:32.101Z,100306.19
2022-07-29T11:43:53.483Z,100309.29
2022-07-29T11:49:02.147Z,100307.30
2022-07-29T11:54:27.277Z,100309.54
2022-07-29T11:59:40.831Z,100310.45
2022-07-29T12:04:55.663Z,100300.80
2022-07-29T12:10:06.157Z,100304.30
2022-07-29T12:15:21.484Z,100297.02
2022-07-29T12:20:31.797Z,100295.94
2022-07-29T12:25:40.936Z,100297.32
2022-07-29T12:30:51.759Z,100288.98
2022-07-29T12:36:06.809Z,100284.34
2022-07-29T12:41:14.799Z,100282.36
2022-07-29T12:46:21.996Z,100273.11
2022-07-29T12:51:41.720Z,100266.63
2022-07-29T12:56:48.646Z,100256.73
2022-07-29T13:01:56.264Z,100258.29
2022-07-29T13:07:07.028Z,100251.82
2022-07-29T13:12:15.955Z,100238.79
2022-07-29T13:17:24.890Z,100242.48
2022-07-29T13:22:31.841Z,100237.61
2022-07-29T13:27:40.811Z,100231.36
2022-07-29T13:32:48.373Z,100229.30
2022-07-29T13:37:55.416Z,100220.64
2022-07-29T13:43:02.370Z,100213.15
2022-07-29T13:48:10.173Z,100212.31
2022-07-29T13:53:18.179Z,100208.92
2022-07-29T13:58:25.543Z,100211.47
2022-07-29T14:03:33.830Z,100218.15
2022-07-29T14:08:40.994Z,100220.10
2022-07-29T14:13:48.368Z,100216.45
2022-07-29T14:18:55.943Z,100213.75
2022-07-29T14:24:03.399Z,100211.80
2022-07-29T14:29:23.565Z,100210.30
2022-07-29T14:34:44.148Z,100207.96
2022-07-29T14:39:51.495Z,100200.62
2022-07-29T14:44:58.787Z,100196.07
2022-07-29T14:50:07.267Z,100193.71
2022-07-29T14:55:19.787Z,100197.73
2022-07-29T15:00:27.744Z,100197.06
2022-07-29T15:05:36.171Z,100197.12
2022-07-29T15:10:43.172Z,100190.39
2022-07-29T15:15:51.228Z,100183.68
2022-07-29T15:20:58.225Z,100172.05
2022-07-29T15:26:08.944Z,100171.38
2022-07-29T15:31:16.241Z,100170.21
2022-07-29T15:36:50.840Z,100168.55
2022-07-29T15:41:50.381Z,100164.79
2022-07-29T15:47:07.382Z,100159.27
2022-07-29T15:52:14.877Z,100159.41
2022-07-29T15:57:21.957Z,100159.48
2022-07-29T16:02:28.981Z,100156.58
2022-07-29T16:07:38.941Z,100159.16
2022-07-29T16:12:45.958Z,100159.98
2022-07-29T16:17:53.289Z,100153.05
2022-07-29T16:23:00.255Z,100155.49
2022-07-29T16:28:08.471Z,100151.25
2022-07-29T16:33:15.637Z,100152.30
2022-07-29T16:38:22.844Z,100151.90
2022-07-29T16:43:29.861Z,100149.63
2022-07-29T16:48:38.851Z,100137.54
2022-07-29T16:53:48.984Z,100134.80
2022-07-29T16:59:00.183Z,100135.19
2022-07-29T17:04:07.405Z,100134.54
2022-07-29T17:09:16.073Z,100131.81
2022-07-29T17:14:26.069Z,100129.02
2022-07-29T17:19:35.481Z,100123.50
2022-07-29T17:24:42.911Z,100122.89
2022-07-29T17:29:50.744Z,100120.59
2022-07-29T17:34:58.568Z,100124.73
2022-07-29T17:40:06.103Z,100125.67
2022-07-29T17:45:13.315Z,100124.04
2022-07-29T17:50:20.357Z,100136.09
2022-07-29T17:55:27.374Z,100141.26
2022-07-29T18:00:34.382Z,100146.86
2022-07-29T18:05:43.047Z,100154.93
2022-07-29T18:10:50.171Z,100157.63
2022-07-29T18:16:00.274Z,100152.19
2022-07-29T18:21:08.736Z,100163.46
2022-07-29T18:26:16.108Z,100168.65
2022-07-29T18:31:23.104Z,100164.05
2022-07-29T18:36:31.002Z,100163.88
2022-07-29T18:41:50.022Z,100170.40
2022-07-29T18:46:58.457Z,100170.13
2022-07-29T18:52:06.140Z,100172.91
2022-07-29T18:57:53.291Z,100171.23
2022-07-29T19:02:40.566Z,100174.02
2022-07-29T19:15:20.076Z,100174.83
2022-07-29T19:20:29.116Z,100175.77
2022-07-29T19:25:37.475Z,100171.20
2022-07-29T19:31:00.786Z,100166.05
2022-07-29T19:36:08.503Z,100164.41
2022-07-29T19:41:18.283Z,100162.95
2022-07-29T19:46:29.977Z,100163.87
2022-07-29T19:51:42.622Z,100162.08
2022-07-29T19:56:50.127Z,100152.59
2022-07-29T20:01:57.682Z,100152.50
2022-07-29T20:07:04.863Z,100159.73
2022-07-29T20:12:13.858Z,100156.29
2022-07-29T20:17:22.475Z,100162.73
2022-07-29T20:22:29.753Z,100165.61
2022-07-29T20:27:41.042Z,100169.67
2022-07-29T20:32:48.751Z,100167.13
2022-07-29T20:37:56.764Z,100168.31
2022-07-29T20:43:05.998Z,100179.30
2022-07-29T20:48:20.583Z,100188.45
2022-07-29T20:53:29.261Z,100195.13
2022-07-29T20:58:36.705Z,100192.40
2022-07-29T21:03:44.079Z,100181.20
2022-07-29T21:08:51.354Z,100180.28
2022-07-29T21:13:58.401Z,100184.98
2022-07-29T21:19:05.385Z,100176.64
2022-07-29T21:24:12.879Z,100168.79
2022-07-29T21:29:20.383Z,100165.92
2022-07-29T21:34:28.677Z,100154.83
2022-07-29T21:39:42.378Z,100160.38
2022-07-29T21:44:50.113Z,100159.09
2022-07-29T21:49:57.158Z,100159.99
2022-07-29T21:55:04.330Z,100153.38
2022-07-29T22:00:15.816Z,100158.46
2022-07-29T22:05:23.040Z,100158.38
2022-07-29T22:10:31.927Z,100157.65
2022-07-29T22:15:39.863Z,100154.79
2022-07-29T22:20:49.017Z,100145.67
2022-07-29T22:25:57.352Z,100138.64
2022-07-29T22:31:04.659Z,100149.55
2022-07-29T22:36:12.895Z,100150.19
2022-07-29T22:41:19.842Z,100137.48
2022-07-29T22:46:26.782Z,100121.83
2022-07-29T22:51:34.171Z,100121.94
2022-07-29T22:56:41.068Z,100114.85
2022-07-29T23:01:48.347Z,100106.09
2022-07-29T23:06:55.359Z,100100.39
2022-07-29T23:12:02.428Z,100101.05
2022-07-29T23:17:09.511Z,100103.78
2022-07-29T23:22:16.595Z,100096.86
2022-07-29T23:27:25.660Z,100089.37
2022-07-29T23:32:32.747Z,100087.18
2022-07-29T23:37:39.863Z,100084.46
2022-07-29T23:42:47.071Z,100079.59
2022-07-29T23:47:53.999Z,100082.63
2022-07-29T23:53:00.780Z,100076.14
2022-07-29T23:58:08.602Z,100074.45
